Aviation Digital Data Service (ADDS)

Output produced by METARs form (0454 UTC 22 April 2018)
found at http://aviationweather.gov/adds/metars/
 
KGGG 220353Z AUTO 15006KT 10SM SCT017 BKN025 OVC031 17/17 A2994 RMK AO2 LTG DSNT SE RAE03 SLP135 P0000 T01670167